sensor_id;sensor_type;location;lat;lon;timestamp;P1;durP1;ratioP1;P2;durP2;ratioP2
13122;SDS011;6627;50.920;12.050;2022-12-29T00:00:14;2.10;;;1.67;;
13122;SDS011;6627;50.920;12.050;2022-12-29T00:02:42;3.50;;;1.60;;
13122;SDS011;6627;50.920;12.050;2022-12-29T00:05:10;1.63;;;1.53;;
13122;SDS011;6627;50.920;12.050;2022-12-29T00:07:37;2.27;;;1.60;;
13122;SDS011;6627;50.920;12.050;2022-12-29T00:10:06;2.60;;;1.47;;
13122;SDS011;6627;50.920;12.050;2022-12-29T00:12:34;3.30;;;1.53;;
13122;SDS011;6627;50.920;12.050;2022-12-29T00:15:21;1.43;;;1.33;;
13122;SDS011;6627;50.920;12.050;2022-12-29T00:18:03;3.03;;;1.50;;
13122;SDS011;6627;50.920;12.050;2022-12-29T00:20:32;1.63;;;1.50;;
13122;SDS011;6627;50.920;12.050;2022-12-29T00:23:19;3.23;;;1.70;;
13122;SDS011;6627;50.920;12.050;2022-12-29T00:26:07;3.07;;;1.57;;
13122;SDS011;6627;50.920;12.050;2022-12-29T00:28:56;2.50;;;1.57;;
13122;SDS011;6627;50.920;12.050;2022-12-29T00:31:43;2.10;;;1.50;;
13122;SDS011;6627;50.920;12.050;2022-12-29T00:34:28;3.23;;;1.43;;
13122;SDS011;6627;50.920;12.050;2022-12-29T00:37:13;2.93;;;1.60;;
13122;SDS011;6627;50.920;12.050;2022-12-29T00:39:40;1.50;;;1.40;;
13122;SDS011;6627;50.920;12.050;2022-12-29T00:42:26;1.90;;;1.50;;
13122;SDS011;6627;50.920;12.050;2022-12-29T00:45:11;2.30;;;1.60;;
13122;SDS011;6627;50.920;12.050;2022-12-29T00:47:40;2.37;;;1.80;;
13122;SDS011;6627;50.920;12.050;2022-12-29T00:50:07;3.17;;;1.60;;
13122;SDS011;6627;50.920;12.050;2022-12-29T00:52:34;2.33;;;1.43;;
13122;SDS011;6627;50.920;12.050;2022-12-29T00:55:01;1.60;;;1.40;;
13122;SDS011;6627;50.920;12.050;2022-12-29T00:57:29;2.43;;;1.30;;
13122;SDS011;6627;50.920;12.050;2022-12-29T00:59:57;3.00;;;1.70;;
13122;SDS011;6627;50.920;12.050;2022-12-29T01:02:25;3.40;;;1.57;;
13122;SDS011;6627;50.920;12.050;2022-12-29T01:05:01;2.53;;;1.57;;
13122;SDS011;6627;50.920;12.050;2022-12-29T01:07:34;2.03;;;1.70;;
13122;SDS011;6627;50.920;12.050;2022-12-29T01:10:08;1.77;;;1.50;;
13122;SDS011;6627;50.920;12.050;2022-12-29T01:12:41;2.53;;;1.60;;
13122;SDS011;6627;50.920;12.050;2022-12-29T01:15:11;4.07;;;1.80;;
13122;SDS011;6627;50.920;12.050;2022-12-29T01:17:48;2.23;;;1.50;;
13122;SDS011;6627;50.920;12.050;2022-12-29T01:20:17;2.47;;;1.80;;
13122;SDS011;6627;50.920;12.050;2022-12-29T01:22:48;2.47;;;1.90;;
13122;SDS011;6627;50.920;12.050;2022-12-29T01:25:16;1.83;;;1.60;;
13122;SDS011;6627;50.920;12.050;2022-12-29T01:27:45;2.23;;;1.53;;
13122;SDS011;6627;50.920;12.050;2022-12-29T01:30:18;2.83;;;1.80;;
13122;SDS011;6627;50.920;12.050;2022-12-29T01:32:50;1.90;;;1.70;;
13122;SDS011;6627;50.920;12.050;2022-12-29T01:35:19;1.90;;;1.70;;
13122;SDS011;6627;50.920;12.050;2022-12-29T01:37:47;1.67;;;1.57;;
13122;SDS011;6627;50.920;12.050;2022-12-29T01:40:15;1.87;;;1.40;;
13122;SDS011;6627;50.920;12.050;2022-12-29T01:42:43;4.50;;;1.60;;
13122;SDS011;6627;50.920;12.050;2022-12-29T01:45:12;1.87;;;1.60;;
13122;SDS011;6627;50.920;12.050;2022-12-29T01:47:42;2.00;;;1.50;;
13122;SDS011;6627;50.920;12.050;2022-12-29T01:50:14;2.63;;;1.43;;
13122;SDS011;6627;50.920;12.050;2022-12-29T01:52:56;2.03;;;1.60;;
13122;SDS011;6627;50.920;12.050;2022-12-29T01:55:28;2.90;;;1.30;;
13122;SDS011;6627;50.920;12.050;2022-12-29T01:58:01;2.50;;;1.70;;
13122;SDS011;6627;50.920;12.050;2022-12-29T02:00:32;2.17;;;1.43;;
13122;SDS011;6627;50.920;12.050;2022-12-29T02:03:01;2.17;;;1.47;;
13122;SDS011;6627;50.920;12.050;2022-12-29T02:05:31;2.70;;;1.57;;
13122;SDS011;6627;50.920;12.050;2022-12-29T02:08:09;3.13;;;1.80;;
13122;SDS011;6627;50.920;12.050;2022-12-29T02:10:48;2.03;;;1.60;;
13122;SDS011;6627;50.920;12.050;2022-12-29T02:13:25;2.43;;;1.63;;
13122;SDS011;6627;50.920;12.050;2022-12-29T02:16:02;1.43;;;1.33;;
13122;SDS011;6627;50.920;12.050;2022-12-29T02:18:45;4.47;;;1.70;;
13122;SDS011;6627;50.920;12.050;2022-12-29T02:21:43;2.10;;;1.60;;
13122;SDS011;6627;50.920;12.050;2022-12-29T02:25:07;1.77;;;1.60;;
13122;SDS011;6627;50.920;12.050;2022-12-29T02:31:41;2.70;;;1.60;;
13122;SDS011;6627;50.920;12.050;2022-12-29T02:34:40;1.50;;;1.40;;
13122;SDS011;6627;50.920;12.050;2022-12-29T02:37:22;2.13;;;1.40;;
13122;SDS011;6627;50.920;12.050;2022-12-29T02:40:02;2.13;;;1.60;;
13122;SDS011;6627;50.920;12.050;2022-12-29T02:42:56;3.27;;;1.50;;
13122;SDS011;6627;50.920;12.050;2022-12-29T02:45:51;3.17;;;1.60;;
13122;SDS011;6627;50.920;12.050;2022-12-29T02:48:45;3.00;;;1.70;;
13122;SDS011;6627;50.920;12.050;2022-12-29T02:51:46;3.17;;;1.87;;
13122;SDS011;6627;50.920;12.050;2022-12-29T02:54:37;2.60;;;1.50;;
13122;SDS011;6627;50.920;12.050;2022-12-29T02:57:10;2.77;;;1.77;;
13122;SDS011;6627;50.920;12.050;2022-12-29T02:59:39;1.77;;;1.60;;
13122;SDS011;6627;50.920;12.050;2022-12-29T03:02:23;2.27;;;1.60;;
13122;SDS011;6627;50.920;12.050;2022-12-29T03:05:10;4.13;;;2.00;;
13122;SDS011;6627;50.920;12.050;2022-12-29T03:07:58;2.53;;;1.60;;
13122;SDS011;6627;50.920;12.050;2022-12-29T03:10:35;2.40;;;1.77;;
13122;SDS011;6627;50.920;12.050;2022-12-29T03:13:16;2.30;;;1.47;;
13122;SDS011;6627;50.920;12.050;2022-12-29T03:16:10;3.10;;;1.60;;
13122;SDS011;6627;50.920;12.050;2022-12-29T03:18:49;2.13;;;1.63;;
13122;SDS011;6627;50.920;12.050;2022-12-29T03:21:25;2.73;;;1.50;;
13122;SDS011;6627;50.920;12.050;2022-12-29T03:24:12;4.57;;;1.70;;
13122;SDS011;6627;50.920;12.050;2022-12-29T03:26:41;1.73;;;1.50;;
13122;SDS011;6627;50.920;12.050;2022-12-29T03:29:12;2.07;;;1.57;;
13122;SDS011;6627;50.920;12.050;2022-12-29T03:31:41;2.33;;;1.73;;
13122;SDS011;6627;50.920;12.050;2022-12-29T03:34:10;3.07;;;1.63;;
13122;SDS011;6627;50.920;12.050;2022-12-29T03:36:42;2.67;;;1.50;;
13122;SDS011;6627;50.920;12.050;2022-12-29T03:39:14;3.40;;;1.73;;
13122;SDS011;6627;50.920;12.050;2022-12-29T03:41:43;1.67;;;1.53;;
13122;SDS011;6627;50.920;12.050;2022-12-29T03:44:12;2.27;;;1.53;;
13122;SDS011;6627;50.920;12.050;2022-12-29T03:46:40;3.70;;;1.50;;
13122;SDS011;6627;50.920;12.050;2022-12-29T03:49:07;1.97;;;1.30;;
13122;SDS011;6627;50.920;12.050;2022-12-29T03:51:35;2.73;;;1.50;;
13122;SDS011;6627;50.920;12.050;2022-12-29T03:54:04;3.20;;;1.47;;
13122;SDS011;6627;50.920;12.050;2022-12-29T03:56:31;2.10;;;1.60;;
13122;SDS011;6627;50.920;12.050;2022-12-29T03:58:59;3.33;;;1.43;;
13122;SDS011;6627;50.920;12.050;2022-12-29T04:01:28;2.90;;;1.30;;
13122;SDS011;6627;50.920;12.050;2022-12-29T04:03:55;1.50;;;1.40;;
13122;SDS011;6627;50.920;12.050;2022-12-29T04:06:23;2.80;;;1.40;;
13122;SDS011;6627;50.920;12.050;2022-12-29T04:08:50;3.30;;;1.40;;
13122;SDS011;6627;50.920;12.050;2022-12-29T04:11:20;1.60;;;1.30;;
13122;SDS011;6627;50.920;12.050;2022-12-29T04:13:47;2.57;;;1.53;;
13122;SDS011;6627;50.920;12.050;2022-12-29T04:16:15;2.63;;;1.40;;
13122;SDS011;6627;50.920;12.050;2022-12-29T04:18:43;3.03;;;1.37;;
13122;SDS011;6627;50.920;12.050;2022-12-29T04:21:10;1.80;;;1.40;;
13122;SDS011;6627;50.920;12.050;2022-12-29T04:23:38;1.60;;;1.40;;
13122;SDS011;6627;50.920;12.050;2022-12-29T04:26:07;3.20;;;1.40;;
13122;SDS011;6627;50.920;12.050;2022-12-29T04:28:36;2.20;;;1.63;;
13122;SDS011;6627;50.920;12.050;2022-12-29T04:31:04;3.47;;;1.50;;
13122;SDS011;6627;50.920;12.050;2022-12-29T04:33:32;3.83;;;1.50;;
13122;SDS011;6627;50.920;12.050;2022-12-29T04:35:59;3.43;;;1.67;;
13122;SDS011;6627;50.920;12.050;2022-12-29T04:38:27;2.50;;;1.60;;
13122;SDS011;6627;50.920;12.050;2022-12-29T04:40:54;3.23;;;1.33;;
13122;SDS011;6627;50.920;12.050;2022-12-29T04:43:25;2.10;;;1.60;;
13122;SDS011;6627;50.920;12.050;2022-12-29T04:45:54;2.17;;;1.50;;
13122;SDS011;6627;50.920;12.050;2022-12-29T04:48:21;2.53;;;1.73;;
13122;SDS011;6627;50.920;12.050;2022-12-29T04:50:49;3.63;;;1.47;;
13122;SDS011;6627;50.920;12.050;2022-12-29T04:53:17;3.20;;;1.57;;
13122;SDS011;6627;50.920;12.050;2022-12-29T04:55:47;2.70;;;1.70;;
13122;SDS011;6627;50.920;12.050;2022-12-29T04:58:16;2.50;;;1.77;;
13122;SDS011;6627;50.920;12.050;2022-12-29T05:00:43;2.50;;;1.50;;
13122;SDS011;6627;50.920;12.050;2022-12-29T05:03:12;2.57;;;1.47;;
13122;SDS011;6627;50.920;12.050;2022-12-29T05:05:40;2.00;;;1.50;;
13122;SDS011;6627;50.920;12.050;2022-12-29T05:08:08;2.33;;;1.70;;
13122;SDS011;6627;50.920;12.050;2022-12-29T05:10:36;2.83;;;1.70;;
13122;SDS011;6627;50.920;12.050;2022-12-29T05:13:03;4.93;;;1.83;;
13122;SDS011;6627;50.920;12.050;2022-12-29T05:15:31;4.17;;;1.73;;
13122;SDS011;6627;50.920;12.050;2022-12-29T05:17:58;2.47;;;1.53;;
13122;SDS011;6627;50.920;12.050;2022-12-29T05:20:27;3.37;;;1.40;;
13122;SDS011;6627;50.920;12.050;2022-12-29T05:22:55;2.80;;;1.23;;
13122;SDS011;6627;50.920;12.050;2022-12-29T05:25:24;2.10;;;1.70;;
13122;SDS011;6627;50.920;12.050;2022-12-29T05:27:52;3.23;;;1.57;;
13122;SDS011;6627;50.920;12.050;2022-12-29T05:30:20;1.83;;;1.40;;
13122;SDS011;6627;50.920;12.050;2022-12-29T05:32:47;4.90;;;1.67;;
13122;SDS011;6627;50.920;12.050;2022-12-29T05:35:15;1.83;;;1.40;;
13122;SDS011;6627;50.920;12.050;2022-12-29T05:37:44;2.17;;;1.50;;
13122;SDS011;6627;50.920;12.050;2022-12-29T05:40:11;1.73;;;1.40;;
13122;SDS011;6627;50.920;12.050;2022-12-29T05:42:39;4.93;;;1.40;;
13122;SDS011;6627;50.920;12.050;2022-12-29T05:45:07;3.17;;;1.50;;
13122;SDS011;6627;50.920;12.050;2022-12-29T05:47:35;2.83;;;1.40;;
13122;SDS011;6627;50.920;12.050;2022-12-29T05:50:03;2.00;;;1.20;;
13122;SDS011;6627;50.920;12.050;2022-12-29T05:52:31;2.20;;;1.30;;
13122;SDS011;6627;50.920;12.050;2022-12-29T05:54:59;2.47;;;1.27;;
13122;SDS011;6627;50.920;12.050;2022-12-29T05:57:26;1.43;;;1.33;;
13122;SDS011;6627;50.920;12.050;2022-12-29T05:59:53;2.43;;;1.40;;
13122;SDS011;6627;50.920;12.050;2022-12-29T06:02:20;1.73;;;1.43;;
13122;SDS011;6627;50.920;12.050;2022-12-29T06:04:48;3.03;;;1.40;;
13122;SDS011;6627;50.920;12.050;2022-12-29T06:07:15;2.20;;;1.30;;
13122;SDS011;6627;50.920;12.050;2022-12-29T06:09:42;1.67;;;1.40;;
13122;SDS011;6627;50.920;12.050;2022-12-29T06:12:10;1.80;;;1.53;;
13122;SDS011;6627;50.920;12.050;2022-12-29T06:14:38;2.20;;;1.63;;
13122;SDS011;6627;50.920;12.050;2022-12-29T06:17:05;1.97;;;1.33;;
13122;SDS011;6627;50.920;12.050;2022-12-29T06:19:32;1.80;;;1.50;;
13122;SDS011;6627;50.920;12.050;2022-12-29T06:21:59;2.13;;;1.33;;
13122;SDS011;6627;50.920;12.050;2022-12-29T06:24:27;1.80;;;1.30;;
13122;SDS011;6627;50.920;12.050;2022-12-29T06:26:54;1.73;;;1.40;;
13122;SDS011;6627;50.920;12.050;2022-12-29T06:29:23;2.30;;;1.40;;
13122;SDS011;6627;50.920;12.050;2022-12-29T06:31:50;4.10;;;1.43;;
13122;SDS011;6627;50.920;12.050;2022-12-29T06:34:21;2.00;;;1.37;;
13122;SDS011;6627;50.920;12.050;2022-12-29T06:36:48;2.33;;;1.40;;
13122;SDS011;6627;50.920;12.050;2022-12-29T06:39:15;2.07;;;1.50;;
13122;SDS011;6627;50.920;12.050;2022-12-29T06:41:43;2.67;;;1.40;;
13122;SDS011;6627;50.920;12.050;2022-12-29T06:44:10;3.00;;;1.23;;
13122;SDS011;6627;50.920;12.050;2022-12-29T06:46:39;1.33;;;1.23;;
13122;SDS011;6627;50.920;12.050;2022-12-29T06:49:06;1.97;;;1.40;;
13122;SDS011;6627;50.920;12.050;2022-12-29T06:51:33;1.30;;;1.20;;
13122;SDS011;6627;50.920;12.050;2022-12-29T06:54:00;2.63;;;1.37;;
13122;SDS011;6627;50.920;12.050;2022-12-29T06:56:28;1.50;;;1.10;;
13122;SDS011;6627;50.920;12.050;2022-12-29T06:58:55;2.83;;;1.40;;
13122;SDS011;6627;50.920;12.050;2022-12-29T07:01:22;2.97;;;1.33;;
13122;SDS011;6627;50.920;12.050;2022-12-29T07:03:51;4.57;;;1.60;;
13122;SDS011;6627;50.920;12.050;2022-12-29T07:06:18;1.30;;;1.20;;
13122;SDS011;6627;50.920;12.050;2022-12-29T07:08:45;1.73;;;1.40;;
13122;SDS011;6627;50.920;12.050;2022-12-29T07:11:13;2.33;;;1.30;;
13122;SDS011;6627;50.920;12.050;2022-12-29T07:13:40;3.67;;;1.50;;
13122;SDS011;6627;50.920;12.050;2022-12-29T07:16:07;1.90;;;1.20;;
13122;SDS011;6627;50.920;12.050;2022-12-29T07:18:36;3.10;;;1.50;;
13122;SDS011;6627;50.920;12.050;2022-12-29T07:21:04;2.00;;;1.80;;
13122;SDS011;6627;50.920;12.050;2022-12-29T07:23:31;2.40;;;1.50;;
13122;SDS011;6627;50.920;12.050;2022-12-29T07:25:59;4.10;;;1.50;;
13122;SDS011;6627;50.920;12.050;2022-12-29T07:28:28;2.43;;;2.00;;
13122;SDS011;6627;50.920;12.050;2022-12-29T07:30:57;2.13;;;1.50;;
13122;SDS011;6627;50.920;12.050;2022-12-29T07:33:25;5.47;;;1.90;;
13122;SDS011;6627;50.920;12.050;2022-12-29T07:35:55;2.23;;;1.50;;
13122;SDS011;6627;50.920;12.050;2022-12-29T07:38:24;2.87;;;1.40;;
13122;SDS011;6627;50.920;12.050;2022-12-29T07:40:55;2.30;;;1.50;;
13122;SDS011;6627;50.920;12.050;2022-12-29T07:43:24;1.50;;;1.20;;
13122;SDS011;6627;50.920;12.050;2022-12-29T07:45:52;1.67;;;1.20;;
13122;SDS011;6627;50.920;12.050;2022-12-29T07:48:19;4.00;;;2.00;;
13122;SDS011;6627;50.920;12.050;2022-12-29T07:50:46;2.33;;;1.43;;
13122;SDS011;6627;50.920;12.050;2022-12-29T07:53:14;1.50;;;1.20;;
13122;SDS011;6627;50.920;12.050;2022-12-29T07:55:42;2.20;;;1.30;;
13122;SDS011;6627;50.920;12.050;2022-12-29T07:58:10;3.40;;;1.90;;
13122;SDS011;6627;50.920;12.050;2022-12-29T08:00:37;3.97;;;1.80;;
13122;SDS011;6627;50.920;12.050;2022-12-29T08:03:05;1.73;;;1.30;;
13122;SDS011;6627;50.920;12.050;2022-12-29T08:05:32;1.57;;;1.40;;
13122;SDS011;6627;50.920;12.050;2022-12-29T08:08:00;2.27;;;1.43;;
13122;SDS011;6627;50.920;12.050;2022-12-29T08:10:27;3.07;;;1.40;;
13122;SDS011;6627;50.920;12.050;2022-12-29T08:12:56;2.63;;;1.50;;
13122;SDS011;6627;50.920;12.050;2022-12-29T08:15:24;1.47;;;1.07;;
13122;SDS011;6627;50.920;12.050;2022-12-29T08:17:51;3.33;;;1.30;;
13122;SDS011;6627;50.920;12.050;2022-12-29T08:20:18;3.67;;;1.30;;
13122;SDS011;6627;50.920;12.050;2022-12-29T08:22:46;1.87;;;1.10;;
13122;SDS011;6627;50.920;12.050;2022-12-29T08:25:14;3.03;;;1.30;;
13122;SDS011;6627;50.920;12.050;2022-12-29T08:27:42;1.77;;;1.43;;
13122;SDS011;6627;50.920;12.050;2022-12-29T08:30:11;1.57;;;1.33;;
13122;SDS011;6627;50.920;12.050;2022-12-29T08:32:39;3.07;;;1.50;;
13122;SDS011;6627;50.920;12.050;2022-12-29T08:35:07;1.60;;;1.10;;
13122;SDS011;6627;50.920;12.050;2022-12-29T08:37:35;1.73;;;1.20;;
13122;SDS011;6627;50.920;12.050;2022-12-29T08:40:03;1.83;;;1.40;;
13122;SDS011;6627;50.920;12.050;2022-12-29T08:42:32;1.73;;;1.17;;
13122;SDS011;6627;50.920;12.050;2022-12-29T08:44:59;1.80;;;1.23;;
13122;SDS011;6627;50.920;12.050;2022-12-29T08:47:29;3.67;;;1.53;;
13122;SDS011;6627;50.920;12.050;2022-12-29T08:49:57;3.37;;;1.50;;
13122;SDS011;6627;50.920;12.050;2022-12-29T08:52:24;3.63;;;1.60;;
13122;SDS011;6627;50.920;12.050;2022-12-29T08:54:51;2.63;;;1.70;;
13122;SDS011;6627;50.920;12.050;2022-12-29T08:57:18;3.30;;;1.30;;
13122;SDS011;6627;50.920;12.050;2022-12-29T08:59:45;2.87;;;1.40;;
13122;SDS011;6627;50.920;12.050;2022-12-29T09:02:12;2.70;;;1.30;;
13122;SDS011;6627;50.920;12.050;2022-12-29T09:04:41;2.87;;;1.70;;
13122;SDS011;6627;50.920;12.050;2022-12-29T09:07:08;1.63;;;1.30;;
13122;SDS011;6627;50.920;12.050;2022-12-29T09:09:35;1.50;;;1.30;;
13122;SDS011;6627;50.920;12.050;2022-12-29T09:12:02;2.57;;;1.17;;
13122;SDS011;6627;50.920;12.050;2022-12-29T09:14:30;2.00;;;1.40;;
13122;SDS011;6627;50.920;12.050;2022-12-29T09:16:57;1.30;;;1.20;;
13122;SDS011;6627;50.920;12.050;2022-12-29T09:19:43;1.20;;;1.10;;
13122;SDS011;6627;50.920;12.050;2022-12-29T09:22:10;1.67;;;1.30;;
13122;SDS011;6627;50.920;12.050;2022-12-29T09:24:37;4.33;;;1.33;;
13122;SDS011;6627;50.920;12.050;2022-12-29T09:27:05;3.13;;;1.50;;
13122;SDS011;6627;50.920;12.050;2022-12-29T09:29:33;3.50;;;1.30;;
13122;SDS011;6627;50.920;12.050;2022-12-29T09:32:00;2.40;;;1.33;;
13122;SDS011;6627;50.920;12.050;2022-12-29T09:34:27;2.67;;;1.50;;
13122;SDS011;6627;50.920;12.050;2022-12-29T09:36:56;1.97;;;1.30;;
13122;SDS011;6627;50.920;12.050;2022-12-29T09:39:23;1.30;;;1.10;;
13122;SDS011;6627;50.920;12.050;2022-12-29T09:41:52;2.30;;;1.30;;
13122;SDS011;6627;50.920;12.050;2022-12-29T09:44:38;1.60;;;1.30;;
13122;SDS011;6627;50.920;12.050;2022-12-29T09:47:22;2.83;;;1.60;;
13122;SDS011;6627;50.920;12.050;2022-12-29T09:49:52;1.73;;;1.23;;
13122;SDS011;6627;50.920;12.050;2022-12-29T09:52:26;3.20;;;1.40;;
13122;SDS011;6627;50.920;12.050;2022-12-29T09:55:01;2.13;;;1.67;;
13122;SDS011;6627;50.920;12.050;2022-12-29T09:57:34;3.23;;;1.60;;
13122;SDS011;6627;50.920;12.050;2022-12-29T10:00:11;1.67;;;1.40;;
13122;SDS011;6627;50.920;12.050;2022-12-29T10:02:43;7.13;;;1.67;;
13122;SDS011;6627;50.920;12.050;2022-12-29T10:05:18;3.47;;;1.83;;
13122;SDS011;6627;50.920;12.050;2022-12-29T10:08:16;3.73;;;1.70;;
13122;SDS011;6627;50.920;12.050;2022-12-29T10:10:56;2.90;;;1.30;;
13122;SDS011;6627;50.920;12.050;2022-12-29T10:13:37;2.30;;;1.63;;
13122;SDS011;6627;50.920;12.050;2022-12-29T10:16:25;1.50;;;1.20;;
13122;SDS011;6627;50.920;12.050;2022-12-29T10:19:16;2.30;;;1.30;;
13122;SDS011;6627;50.920;12.050;2022-12-29T10:22:09;3.03;;;1.57;;
13122;SDS011;6627;50.920;12.050;2022-12-29T10:24:56;2.20;;;1.50;;
13122;SDS011;6627;50.920;12.050;2022-12-29T10:27:30;2.60;;;1.20;;
13122;SDS011;6627;50.920;12.050;2022-12-29T10:29:59;2.90;;;1.40;;
13122;SDS011;6627;50.920;12.050;2022-12-29T10:32:31;3.00;;;1.50;;
13122;SDS011;6627;50.920;12.050;2022-12-29T10:35:10;2.37;;;1.30;;
13122;SDS011;6627;50.920;12.050;2022-12-29T10:37:43;2.00;;;1.30;;
13122;SDS011;6627;50.920;12.050;2022-12-29T10:40:24;3.03;;;1.37;;
13122;SDS011;6627;50.920;12.050;2022-12-29T10:42:58;1.97;;;1.20;;
13122;SDS011;6627;50.920;12.050;2022-12-29T10:45:28;1.73;;;1.47;;
13122;SDS011;6627;50.920;12.050;2022-12-29T10:47:59;1.60;;;1.23;;
13122;SDS011;6627;50.920;12.050;2022-12-29T10:50:32;3.30;;;1.57;;
13122;SDS011;6627;50.920;12.050;2022-12-29T10:53:02;2.93;;;1.40;;
13122;SDS011;6627;50.920;12.050;2022-12-29T10:55:33;2.10;;;1.37;;
13122;SDS011;6627;50.920;12.050;2022-12-29T10:58:05;3.17;;;1.47;;
13122;SDS011;6627;50.920;12.050;2022-12-29T11:00:37;3.17;;;1.73;;
13122;SDS011;6627;50.920;12.050;2022-12-29T11:03:18;1.67;;;1.30;;
13122;SDS011;6627;50.920;12.050;2022-12-29T11:06:13;1.27;;;1.10;;
13122;SDS011;6627;50.920;12.050;2022-12-29T11:08:53;1.90;;;1.30;;
13122;SDS011;6627;50.920;12.050;2022-12-29T11:11:32;2.33;;;1.50;;
13122;SDS011;6627;50.920;12.050;2022-12-29T11:14:03;1.40;;;1.27;;
13122;SDS011;6627;50.920;12.050;2022-12-29T11:16:39;1.70;;;1.37;;
13122;SDS011;6627;50.920;12.050;2022-12-29T11:19:19;3.17;;;1.40;;
13122;SDS011;6627;50.920;12.050;2022-12-29T11:21:48;3.10;;;1.30;;
13122;SDS011;6627;50.920;12.050;2022-12-29T11:24:20;2.17;;;1.40;;
13122;SDS011;6627;50.920;12.050;2022-12-29T11:26:52;2.33;;;1.37;;
13122;SDS011;6627;50.920;12.050;2022-12-29T11:29:24;3.57;;;1.60;;
13122;SDS011;6627;50.920;12.050;2022-12-29T11:31:54;3.47;;;1.40;;
13122;SDS011;6627;50.920;12.050;2022-12-29T11:34:24;2.73;;;1.60;;
13122;SDS011;6627;50.920;12.050;2022-12-29T11:36:58;2.77;;;1.37;;
13122;SDS011;6627;50.920;12.050;2022-12-29T11:39:30;1.90;;;1.30;;
13122;SDS011;6627;50.920;12.050;2022-12-29T11:42:11;2.93;;;1.50;;
13122;SDS011;6627;50.920;12.050;2022-12-29T11:44:43;3.47;;;1.40;;
13122;SDS011;6627;50.920;12.050;2022-12-29T11:47:19;1.90;;;1.40;;
13122;SDS011;6627;50.920;12.050;2022-12-29T11:49:55;2.77;;;1.47;;
13122;SDS011;6627;50.920;12.050;2022-12-29T11:52:27;2.27;;;1.53;;
13122;SDS011;6627;50.920;12.050;2022-12-29T11:55:01;2.40;;;1.40;;
13122;SDS011;6627;50.920;12.050;2022-12-29T11:57:35;2.80;;;1.67;;
13122;SDS011;6627;50.920;12.050;2022-12-29T12:00:03;2.87;;;1.63;;
13122;SDS011;6627;50.920;12.050;2022-12-29T12:02:46;2.70;;;1.63;;
13122;SDS011;6627;50.920;12.050;2022-12-29T12:05:22;2.97;;;1.30;;
13122;SDS011;6627;50.920;12.050;2022-12-29T12:08:00;2.53;;;1.40;;
13122;SDS011;6627;50.920;12.050;2022-12-29T12:10:36;1.90;;;1.27;;
13122;SDS011;6627;50.920;12.050;2022-12-29T12:13:22;3.37;;;1.50;;
13122;SDS011;6627;50.920;12.050;2022-12-29T12:15:57;4.43;;;1.60;;
13122;SDS011;6627;50.920;12.050;2022-12-29T12:18:33;1.87;;;1.50;;
13122;SDS011;6627;50.920;12.050;2022-12-29T12:21:18;2.53;;;1.50;;
13122;SDS011;6627;50.920;12.050;2022-12-29T12:26:59;3.53;;;2.20;;
13122;SDS011;6627;50.920;12.050;2022-12-29T12:29:40;5.10;;;1.80;;
13122;SDS011;6627;50.920;12.050;2022-12-29T12:32:17;3.60;;;2.00;;
13122;SDS011;6627;50.920;12.050;2022-12-29T12:34:53;3.10;;;1.87;;
13122;SDS011;6627;50.920;12.050;2022-12-29T12:37:30;2.23;;;1.80;;
13122;SDS011;6627;50.920;12.050;2022-12-29T12:40:29;2.70;;;1.90;;
13122;SDS011;6627;50.920;12.050;2022-12-29T12:43:10;3.40;;;1.97;;
13122;SDS011;6627;50.920;12.050;2022-12-29T12:46:03;4.90;;;1.93;;
13122;SDS011;6627;50.920;12.050;2022-12-29T12:48:48;2.40;;;1.50;;
13122;SDS011;6627;50.920;12.050;2022-12-29T12:51:30;3.80;;;2.03;;
13122;SDS011;6627;50.920;12.050;2022-12-29T12:54:11;2.47;;;2.00;;
13122;SDS011;6627;50.920;12.050;2022-12-29T12:56:56;3.70;;;1.90;;
13122;SDS011;6627;50.920;12.050;2022-12-29T12:59:38;3.40;;;1.90;;
13122;SDS011;6627;50.920;12.050;2022-12-29T13:02:19;3.57;;;1.70;;
13122;SDS011;6627;50.920;12.050;2022-12-29T13:04:59;1.87;;;1.40;;
13122;SDS011;6627;50.920;12.050;2022-12-29T13:07:39;3.13;;;1.63;;
13122;SDS011;6627;50.920;12.050;2022-12-29T13:13:12;2.60;;;1.67;;
13122;SDS011;6627;50.920;12.050;2022-12-29T13:15:54;3.63;;;1.80;;
13122;SDS011;6627;50.920;12.050;2022-12-29T13:18:31;3.03;;;2.00;;
13122;SDS011;6627;50.920;12.050;2022-12-29T13:21:05;4.77;;;1.83;;
13122;SDS011;6627;50.920;12.050;2022-12-29T13:23:52;3.53;;;1.90;;
13122;SDS011;6627;50.920;12.050;2022-12-29T13:26:30;6.73;;;2.13;;
13122;SDS011;6627;50.920;12.050;2022-12-29T13:29:04;1.97;;;1.77;;
13122;SDS011;6627;50.920;12.050;2022-12-29T13:31:42;3.67;;;1.97;;
13122;SDS011;6627;50.920;12.050;2022-12-29T13:34:25;3.43;;;2.00;;
13122;SDS011;6627;50.920;12.050;2022-12-29T13:37:07;4.60;;;2.27;;
13122;SDS011;6627;50.920;12.050;2022-12-29T13:39:41;2.20;;;2.00;;
13122;SDS011;6627;50.920;12.050;2022-12-29T13:42:17;5.13;;;2.10;;
13122;SDS011;6627;50.920;12.050;2022-12-29T13:44:46;3.83;;;2.00;;
13122;SDS011;6627;50.920;12.050;2022-12-29T13:47:22;2.13;;;1.73;;
13122;SDS011;6627;50.920;12.050;2022-12-29T13:49:59;3.20;;;1.80;;
13122;SDS011;6627;50.920;12.050;2022-12-29T13:52:32;5.27;;;2.50;;
13122;SDS011;6627;50.920;12.050;2022-12-29T13:55:17;3.03;;;2.03;;
13122;SDS011;6627;50.920;12.050;2022-12-29T13:57:53;4.73;;;1.80;;
13122;SDS011;6627;50.920;12.050;2022-12-29T14:00:32;3.50;;;2.27;;
13122;SDS011;6627;50.920;12.050;2022-12-29T14:03:18;3.00;;;1.80;;
13122;SDS011;6627;50.920;12.050;2022-12-29T14:06:14;2.60;;;1.80;;
13122;SDS011;6627;50.920;12.050;2022-12-29T14:08:48;3.80;;;1.77;;
13122;SDS011;6627;50.920;12.050;2022-12-29T14:11:18;2.47;;;1.80;;
13122;SDS011;6627;50.920;12.050;2022-12-29T14:13:51;3.07;;;1.57;;
13122;SDS011;6627;50.920;12.050;2022-12-29T14:16:29;2.63;;;1.40;;
13122;SDS011;6627;50.920;12.050;2022-12-29T14:21:54;1.90;;;1.27;;
13122;SDS011;6627;50.920;12.050;2022-12-29T14:24:41;2.47;;;1.00;;
13122;SDS011;6627;50.920;12.050;2022-12-29T14:33:24;1.93;;;1.03;;
13122;SDS011;6627;50.920;12.050;2022-12-29T14:35:54;2.10;;;0.90;;
13122;SDS011;6627;50.920;12.050;2022-12-29T14:38:26;2.57;;;1.00;;
13122;SDS011;6627;50.920;12.050;2022-12-29T14:43:51;2.90;;;1.10;;
13122;SDS011;6627;50.920;12.050;2022-12-29T14:46:25;1.00;;;0.90;;
13122;SDS011;6627;50.920;12.050;2022-12-29T14:49:08;1.50;;;1.00;;
13122;SDS011;6627;50.920;12.050;2022-12-29T14:51:44;3.17;;;1.70;;
13122;SDS011;6627;50.920;12.050;2022-12-29T14:57:18;1.47;;;0.93;;
13122;SDS011;6627;50.920;12.050;2022-12-29T15:00:01;2.17;;;1.00;;
13122;SDS011;6627;50.920;12.050;2022-12-29T15:03:04;4.30;;;1.20;;
13122;SDS011;6627;50.920;12.050;2022-12-29T15:05:40;1.73;;;0.90;;
13122;SDS011;6627;50.920;12.050;2022-12-29T15:08:12;1.37;;;0.90;;
13122;SDS011;6627;50.920;12.050;2022-12-29T15:10:45;2.37;;;0.90;;
13122;SDS011;6627;50.920;12.050;2022-12-29T15:13:22;1.20;;;0.90;;
13122;SDS011;6627;50.920;12.050;2022-12-29T15:15:51;3.13;;;1.00;;
13122;SDS011;6627;50.920;12.050;2022-12-29T15:18:24;2.83;;;1.17;;
13122;SDS011;6627;50.920;12.050;2022-12-29T15:20:53;0.87;;;0.83;;
13122;SDS011;6627;50.920;12.050;2022-12-29T15:23:23;1.87;;;1.10;;
13122;SDS011;6627;50.920;12.050;2022-12-29T15:25:55;1.80;;;1.10;;
13122;SDS011;6627;50.920;12.050;2022-12-29T15:28:24;2.30;;;1.10;;
13122;SDS011;6627;50.920;12.050;2022-12-29T15:30:54;4.07;;;1.00;;
13122;SDS011;6627;50.920;12.050;2022-12-29T15:33:23;2.33;;;1.00;;
13122;SDS011;6627;50.920;12.050;2022-12-29T15:35:54;2.53;;;1.30;;
13122;SDS011;6627;50.920;12.050;2022-12-29T15:38:24;2.13;;;1.10;;
13122;SDS011;6627;50.920;12.050;2022-12-29T15:40:59;2.97;;;1.27;;
13122;SDS011;6627;50.920;12.050;2022-12-29T15:43:37;3.20;;;1.30;;
13122;SDS011;6627;50.920;12.050;2022-12-29T15:46:14;1.73;;;1.00;;
13122;SDS011;6627;50.920;12.050;2022-12-29T15:48:42;1.13;;;0.83;;